sensor_id;sensor_type;location;lat;lon;timestamp;pressure;altitude;pressure_sealevel;temperature;humidity
21824;BME280;11074;48.596;9.238;2023-03-15T00:01:40;97846.16;;;6.28;81.92
21824;BME280;11074;48.596;9.238;2023-03-15T00:04:06;97845.81;;;6.36;82.72
21824;BME280;11074;48.596;9.238;2023-03-15T00:06:33;97845.34;;;6.27;81.84
21824;BME280;11074;48.596;9.238;2023-03-15T00:09:00;97846.63;;;6.25;82.45
21824;BME280;11074;48.596;9.238;2023-03-15T00:11:28;97849.13;;;6.43;81.58
21824;BME280;11074;48.596;9.238;2023-03-15T00:13:58;97851.56;;;6.33;80.69
21824;BME280;11074;48.596;9.238;2023-03-15T00:16:24;97863.88;;;6.50;82.31
21824;BME280;11074;48.596;9.238;2023-03-15T00:18:53;97862.63;;;6.53;81.81
21824;BME280;11074;48.596;9.238;2023-03-15T00:21:20;97877.47;;;6.65;81.09
21824;BME280;11074;48.596;9.238;2023-03-15T00:23:46;97868.16;;;6.51;81.49
21824;BME280;11074;48.596;9.238;2023-03-15T00:26:12;97889.63;;;6.61;80.73
21824;BME280;11074;48.596;9.238;2023-03-15T00:28:38;97895.59;;;6.68;79.98
21824;BME280;11074;48.596;9.238;2023-03-15T00:31:16;97906.47;;;6.55;79.26
21824;BME280;11074;48.596;9.238;2023-03-15T00:33:42;97925.41;;;6.47;80.55
21824;BME280;11074;48.596;9.238;2023-03-15T00:36:10;97919.53;;;6.45;81.48
21824;BME280;11074;48.596;9.238;2023-03-15T00:38:39;97935.34;;;6.40;80.09
21824;BME280;11074;48.596;9.238;2023-03-15T00:41:11;97935.94;;;6.42;81.45
21824;BME280;11074;48.596;9.238;2023-03-15T00:43:37;97938.94;;;6.46;80.95
21824;BME280;11074;48.596;9.238;2023-03-15T00:46:04;97946.56;;;6.54;81.74
21824;BME280;11074;48.596;9.238;2023-03-15T00:48:31;97949.31;;;6.36;80.47
21824;BME280;11074;48.596;9.238;2023-03-15T00:51:16;97963.06;;;6.33;80.85
21824;BME280;11074;48.596;9.238;2023-03-15T00:53:44;97965.13;;;6.19;80.58
21824;BME280;11074;48.596;9.238;2023-03-15T00:56:23;97970.78;;;6.34;81.17
21824;BME280;11074;48.596;9.238;2023-03-15T00:58:50;97966.97;;;6.42;81.36
21824;BME280;11074;48.596;9.238;2023-03-15T01:01:26;97974.94;;;6.42;81.41
21824;BME280;11074;48.596;9.238;2023-03-15T01:03:52;97969.06;;;6.40;79.24
21824;BME280;11074;48.596;9.238;2023-03-15T01:06:21;97974.25;;;6.46;80.48
21824;BME280;11074;48.596;9.238;2023-03-15T01:08:47;97979.22;;;6.54;80.21
21824;BME280;11074;48.596;9.238;2023-03-15T01:11:17;97979.69;;;6.51;78.88
21824;BME280;11074;48.596;9.238;2023-03-15T01:13:43;97979.00;;;6.56;80.13
21824;BME280;11074;48.596;9.238;2023-03-15T01:16:12;97974.03;;;6.59;78.83
21824;BME280;11074;48.596;9.238;2023-03-15T01:18:39;97986.38;;;6.54;78.52
21824;BME280;11074;48.596;9.238;2023-03-15T01:21:07;97984.63;;;6.48;78.95
21824;BME280;11074;48.596;9.238;2023-03-15T01:23:34;97997.00;;;6.42;78.59
21824;BME280;11074;48.596;9.238;2023-03-15T01:26:06;98005.06;;;6.47;80.19
21824;BME280;11074;48.596;9.238;2023-03-15T01:28:32;98002.28;;;6.42;81.12
21824;BME280;11074;48.596;9.238;2023-03-15T01:30:58;98005.66;;;6.38;80.32
21824;BME280;11074;48.596;9.238;2023-03-15T01:33:24;98009.13;;;6.38;80.90
21824;BME280;11074;48.596;9.238;2023-03-15T01:36:06;98013.50;;;6.33;79.91
21824;BME280;11074;48.596;9.238;2023-03-15T01:38:32;98017.63;;;6.29;81.41
21824;BME280;11074;48.596;9.238;2023-03-15T01:40:59;98016.34;;;6.20;82.01
21824;BME280;11074;48.596;9.238;2023-03-15T01:43:30;98025.78;;;6.16;82.18
21824;BME280;11074;48.596;9.238;2023-03-15T01:46:21;98016.31;;;6.08;81.10
21824;BME280;11074;48.596;9.238;2023-03-15T01:48:52;98024.19;;;6.15;80.37
21824;BME280;11074;48.596;9.238;2023-03-15T01:51:38;98034.94;;;6.20;80.99
21824;BME280;11074;48.596;9.238;2023-03-15T01:54:33;98027.94;;;5.95;80.67
21824;BME280;11074;48.596;9.238;2023-03-15T01:57:05;98044.44;;;5.97;82.93
21824;BME280;11074;48.596;9.238;2023-03-15T01:59:39;98040.97;;;5.97;83.13
21824;BME280;11074;48.596;9.238;2023-03-15T02:02:06;98046.41;;;5.84;81.05
21824;BME280;11074;48.596;9.238;2023-03-15T02:04:41;98044.06;;;5.94;82.22
21824;BME280;11074;48.596;9.238;2023-03-15T02:07:12;98038.56;;;5.95;80.99
21824;BME280;11074;48.596;9.238;2023-03-15T02:12:14;98050.56;;;5.98;80.73
21824;BME280;11074;48.596;9.238;2023-03-15T02:14:40;98052.75;;;6.01;80.10
21824;BME280;11074;48.596;9.238;2023-03-15T02:17:06;98050.75;;;5.96;79.25
21824;BME280;11074;48.596;9.238;2023-03-15T02:20:05;98056.03;;;5.85;80.72
21824;BME280;11074;48.596;9.238;2023-03-15T02:22:57;98067.63;;;5.84;81.19
21824;BME280;11074;48.596;9.238;2023-03-15T02:28:28;98072.81;;;5.79;80.22
21824;BME280;11074;48.596;9.238;2023-03-15T02:30:55;98077.41;;;5.72;80.82
21824;BME280;11074;48.596;9.238;2023-03-15T02:33:29;98072.69;;;5.56;81.84
21824;BME280;11074;48.596;9.238;2023-03-15T02:36:17;98077.31;;;5.60;81.89
21824;BME280;11074;48.596;9.238;2023-03-15T02:38:44;98088.94;;;5.59;80.67
21824;BME280;11074;48.596;9.238;2023-03-15T02:41:12;98089.13;;;5.64;80.05
21824;BME280;11074;48.596;9.238;2023-03-15T02:43:40;98092.13;;;5.68;82.08
21824;BME280;11074;48.596;9.238;2023-03-15T02:46:08;98088.81;;;5.54;80.95
21824;BME280;11074;48.596;9.238;2023-03-15T02:48:35;98100.75;;;5.45;81.94
21824;BME280;11074;48.596;9.238;2023-03-15T02:51:02;98103.09;;;5.35;82.34
21824;BME280;11074;48.596;9.238;2023-03-15T02:53:29;98098.28;;;5.07;82.94
21824;BME280;11074;48.596;9.238;2023-03-15T02:55:55;98101.25;;;4.93;82.66
21824;BME280;11074;48.596;9.238;2023-03-15T02:58:21;98112.50;;;5.13;83.85
21824;BME280;11074;48.596;9.238;2023-03-15T03:00:47;98115.47;;;5.23;81.53
21824;BME280;11074;48.596;9.238;2023-03-15T03:03:13;98115.84;;;5.26;80.38
21824;BME280;11074;48.596;9.238;2023-03-15T03:05:38;98122.00;;;5.20;80.53
21824;BME280;11074;48.596;9.238;2023-03-15T03:08:04;98121.63;;;5.17;81.19
21824;BME280;11074;48.596;9.238;2023-03-15T03:10:30;98129.88;;;4.84;82.35
21824;BME280;11074;48.596;9.238;2023-03-15T03:12:56;98132.41;;;4.97;83.68
21824;BME280;11074;48.596;9.238;2023-03-15T03:15:21;98133.47;;;5.14;81.47
21824;BME280;11074;48.596;9.238;2023-03-15T03:17:47;98138.06;;;5.01;81.26
21824;BME280;11074;48.596;9.238;2023-03-15T03:20:13;98144.69;;;4.92;83.22
21824;BME280;11074;48.596;9.238;2023-03-15T03:22:41;98146.19;;;4.81;83.68
21824;BME280;11074;48.596;9.238;2023-03-15T03:25:11;98158.38;;;4.82;82.00
21824;BME280;11074;48.596;9.238;2023-03-15T03:27:38;98166.22;;;4.95;80.78
21824;BME280;11074;48.596;9.238;2023-03-15T03:30:07;98172.91;;;5.04;81.46
21824;BME280;11074;48.596;9.238;2023-03-15T03:32:33;98164.91;;;4.86;81.47
21824;BME280;11074;48.596;9.238;2023-03-15T03:34:59;98177.38;;;4.79;82.95
21824;BME280;11074;48.596;9.238;2023-03-15T03:37:25;98181.59;;;4.86;81.53
21824;BME280;11074;48.596;9.238;2023-03-15T03:39:51;98186.28;;;4.84;81.32
21824;BME280;11074;48.596;9.238;2023-03-15T03:42:16;98193.84;;;5.06;83.50
21824;BME280;11074;48.596;9.238;2023-03-15T03:44:42;98185.25;;;4.85;81.92
21824;BME280;11074;48.596;9.238;2023-03-15T03:47:08;98185.56;;;5.02;82.28
21824;BME280;11074;48.596;9.238;2023-03-15T03:49:34;98194.91;;;5.05;81.54
21824;BME280;11074;48.596;9.238;2023-03-15T03:51:59;98200.47;;;4.97;81.87
21824;BME280;11074;48.596;9.238;2023-03-15T03:54:26;98206.06;;;4.82;79.90
21824;BME280;11074;48.596;9.238;2023-03-15T03:56:52;98203.50;;;4.69;81.45
21824;BME280;11074;48.596;9.238;2023-03-15T03:59:18;98206.69;;;4.84;81.39
21824;BME280;11074;48.596;9.238;2023-03-15T04:01:44;98204.63;;;4.86;81.71
21824;BME280;11074;48.596;9.238;2023-03-15T04:04:10;98211.34;;;4.82;79.38
21824;BME280;11074;48.596;9.238;2023-03-15T04:06:39;98217.63;;;4.87;80.36
21824;BME280;11074;48.596;9.238;2023-03-15T04:09:11;98214.66;;;4.77;81.90
21824;BME280;11074;48.596;9.238;2023-03-15T04:11:40;98219.03;;;4.65;80.37
21824;BME280;11074;48.596;9.238;2023-03-15T04:14:10;98222.34;;;4.48;82.72
21824;BME280;11074;48.596;9.238;2023-03-15T04:16:37;98230.06;;;4.56;82.73
21824;BME280;11074;48.596;9.238;2023-03-15T04:19:04;98230.91;;;4.50;81.86
21824;BME280;11074;48.596;9.238;2023-03-15T04:21:30;98237.81;;;4.57;82.58
21824;BME280;11074;48.596;9.238;2023-03-15T04:24:00;98236.88;;;4.39;82.51
21824;BME280;11074;48.596;9.238;2023-03-15T04:26:29;98236.69;;;4.34;82.96
21824;BME280;11074;48.596;9.238;2023-03-15T04:28:57;98243.94;;;4.45;83.56
21824;BME280;11074;48.596;9.238;2023-03-15T04:31:24;98242.09;;;4.52;82.10
21824;BME280;11074;48.596;9.238;2023-03-15T04:33:52;98246.09;;;4.61;82.34
21824;BME280;11074;48.596;9.238;2023-03-15T04:36:20;98254.69;;;4.56;81.61
21824;BME280;11074;48.596;9.238;2023-03-15T04:38:46;98259.97;;;4.56;81.89
21824;BME280;11074;48.596;9.238;2023-03-15T04:41:14;98252.78;;;4.70;81.70
21824;BME280;11074;48.596;9.238;2023-03-15T04:43:40;98252.97;;;4.68;79.00
21824;BME280;11074;48.596;9.238;2023-03-15T04:46:06;98257.41;;;4.43;81.02
21824;BME280;11074;48.596;9.238;2023-03-15T04:48:32;98258.59;;;4.47;80.83
21824;BME280;11074;48.596;9.238;2023-03-15T04:50:58;98272.81;;;4.53;81.01
21824;BME280;11074;48.596;9.238;2023-03-15T04:53:24;98272.03;;;4.52;81.63
21824;BME280;11074;48.596;9.238;2023-03-15T04:55:49;98277.56;;;4.44;81.14
21824;BME280;11074;48.596;9.238;2023-03-15T04:58:16;98272.31;;;4.31;81.99
21824;BME280;11074;48.596;9.238;2023-03-15T05:00:42;98275.94;;;4.37;81.88
21824;BME280;11074;48.596;9.238;2023-03-15T05:03:08;98274.44;;;4.54;81.37
21824;BME280;11074;48.596;9.238;2023-03-15T05:05:33;98272.47;;;4.43;80.30
21824;BME280;11074;48.596;9.238;2023-03-15T05:07:59;98278.56;;;4.43;81.66
21824;BME280;11074;48.596;9.238;2023-03-15T05:10:26;98275.69;;;4.45;81.08
21824;BME280;11074;48.596;9.238;2023-03-15T05:12:54;98267.16;;;4.49;80.62
21824;BME280;11074;48.596;9.238;2023-03-15T05:15:20;98274.91;;;4.44;81.00
21824;BME280;11074;48.596;9.238;2023-03-15T05:17:46;98269.56;;;4.57;82.01
21824;BME280;11074;48.596;9.238;2023-03-15T05:20:14;98272.41;;;4.56;81.75
21824;BME280;11074;48.596;9.238;2023-03-15T05:22:41;98272.38;;;4.62;81.51
21824;BME280;11074;48.596;9.238;2023-03-15T05:25:09;98281.41;;;4.48;80.27
21824;BME280;11074;48.596;9.238;2023-03-15T05:27:36;98273.28;;;4.50;78.06
21824;BME280;11074;48.596;9.238;2023-03-15T05:30:03;98276.47;;;4.58;81.23
21824;BME280;11074;48.596;9.238;2023-03-15T05:32:31;98271.47;;;4.44;79.12
21824;BME280;11074;48.596;9.238;2023-03-15T05:35:03;98280.63;;;4.41;81.76
21824;BME280;11074;48.596;9.238;2023-03-15T05:37:29;98284.88;;;4.42;80.14
21824;BME280;11074;48.596;9.238;2023-03-15T05:39:57;98290.84;;;4.31;79.77
21824;BME280;11074;48.596;9.238;2023-03-15T05:42:24;98288.03;;;4.19;80.91
21824;BME280;11074;48.596;9.238;2023-03-15T05:44:54;98296.34;;;4.29;80.13
21824;BME280;11074;48.596;9.238;2023-03-15T05:47:21;98300.19;;;4.34;79.61
21824;BME280;11074;48.596;9.238;2023-03-15T05:49:48;98293.28;;;4.33;79.46
21824;BME280;11074;48.596;9.238;2023-03-15T05:52:15;98301.03;;;4.21;79.18
21824;BME280;11074;48.596;9.238;2023-03-15T05:54:41;98289.41;;;4.28;78.79
21824;BME280;11074;48.596;9.238;2023-03-15T05:57:07;98294.91;;;4.27;78.47
21824;BME280;11074;48.596;9.238;2023-03-15T05:59:33;98305.28;;;4.28;78.07
21824;BME280;11074;48.596;9.238;2023-03-15T06:01:59;98301.22;;;4.26;77.89
21824;BME280;11074;48.596;9.238;2023-03-15T06:04:25;98308.56;;;4.24;78.66
21824;BME280;11074;48.596;9.238;2023-03-15T06:06:51;98305.09;;;4.30;79.17
21824;BME280;11074;48.596;9.238;2023-03-15T06:09:18;98301.22;;;4.26;79.73
21824;BME280;11074;48.596;9.238;2023-03-15T06:11:43;98295.72;;;4.27;79.59
21824;BME280;11074;48.596;9.238;2023-03-15T06:14:09;98300.81;;;4.29;79.20
21824;BME280;11074;48.596;9.238;2023-03-15T06:16:35;98300.38;;;4.32;80.41
21824;BME280;11074;48.596;9.238;2023-03-15T06:19:00;98309.38;;;4.31;80.17
21824;BME280;11074;48.596;9.238;2023-03-15T06:21:26;98313.81;;;4.37;80.90
21824;BME280;11074;48.596;9.238;2023-03-15T06:23:51;98311.97;;;4.44;81.69
21824;BME280;11074;48.596;9.238;2023-03-15T06:26:17;98309.31;;;4.44;81.67
21824;BME280;11074;48.596;9.238;2023-03-15T06:28:44;98317.84;;;4.46;81.00
21824;BME280;11074;48.596;9.238;2023-03-15T06:31:12;98320.50;;;4.46;80.60
21824;BME280;11074;48.596;9.238;2023-03-15T06:33:39;98327.00;;;4.50;81.28
21824;BME280;11074;48.596;9.238;2023-03-15T06:36:05;98325.16;;;4.57;81.20
21824;BME280;11074;48.596;9.238;2023-03-15T06:38:32;98335.69;;;4.64;82.11
21824;BME280;11074;48.596;9.238;2023-03-15T06:40:58;98335.06;;;4.68;81.40
21824;BME280;11074;48.596;9.238;2023-03-15T06:43:30;98330.75;;;4.74;80.58
21824;BME280;11074;48.596;9.238;2023-03-15T06:45:56;98328.75;;;4.76;80.50
21824;BME280;11074;48.596;9.238;2023-03-15T06:48:25;98340.13;;;4.76;80.78
21824;BME280;11074;48.596;9.238;2023-03-15T06:50:51;98344.38;;;4.84;80.87
21824;BME280;11074;48.596;9.238;2023-03-15T06:53:16;98351.28;;;4.85;80.85
21824;BME280;11074;48.596;9.238;2023-03-15T06:55:43;98351.13;;;4.80;80.87
21824;BME280;11074;48.596;9.238;2023-03-15T06:58:10;98351.94;;;4.80;82.14
21824;BME280;11074;48.596;9.238;2023-03-15T07:00:36;98355.56;;;4.86;82.36
21824;BME280;11074;48.596;9.238;2023-03-15T07:03:02;98351.03;;;4.93;81.88
21824;BME280;11074;48.596;9.238;2023-03-15T07:05:27;98344.69;;;5.01;81.40
21824;BME280;11074;48.596;9.238;2023-03-15T07:07:53;98348.56;;;5.05;80.44
21824;BME280;11074;48.596;9.238;2023-03-15T07:10:19;98345.84;;;5.11;81.25
21824;BME280;11074;48.596;9.238;2023-03-15T07:12:45;98341.38;;;5.12;81.80
21824;BME280;11074;48.596;9.238;2023-03-15T07:15:11;98338.97;;;5.04;80.31
21824;BME280;11074;48.596;9.238;2023-03-15T07:17:37;98346.91;;;5.04;80.51
21824;BME280;11074;48.596;9.238;2023-03-15T07:20:03;98346.72;;;5.05;79.95
21824;BME280;11074;48.596;9.238;2023-03-15T07:22:31;98347.97;;;5.03;81.34
21824;BME280;11074;48.596;9.238;2023-03-15T07:24:57;98355.69;;;5.04;80.55
21824;BME280;11074;48.596;9.238;2023-03-15T07:27:23;98353.44;;;5.08;81.54
21824;BME280;11074;48.596;9.238;2023-03-15T07:29:49;98349.78;;;5.02;80.22
21824;BME280;11074;48.596;9.238;2023-03-15T07:32:14;98358.81;;;4.95;79.34
21824;BME280;11074;48.596;9.238;2023-03-15T07:34:40;98363.28;;;4.94;80.45
21824;BME280;11074;48.596;9.238;2023-03-15T07:37:06;98366.75;;;4.95;79.19
21824;BME280;11074;48.596;9.238;2023-03-15T07:39:32;98358.16;;;4.99;79.93
21824;BME280;11074;48.596;9.238;2023-03-15T07:41:58;98362.63;;;5.05;80.31
21824;BME280;11074;48.596;9.238;2023-03-15T07:44:24;98362.22;;;4.95;78.10
21824;BME280;11074;48.596;9.238;2023-03-15T07:46:50;98365.94;;;4.87;79.95
21824;BME280;11074;48.596;9.238;2023-03-15T07:49:16;98370.88;;;4.84;76.97
21824;BME280;11074;48.596;9.238;2023-03-15T07:51:41;98375.28;;;4.97;79.52
21824;BME280;11074;48.596;9.238;2023-03-15T07:54:08;98370.75;;;5.04;78.67
21824;BME280;11074;48.596;9.238;2023-03-15T07:56:34;98377.47;;;5.06;78.26
21824;BME280;11074;48.596;9.238;2023-03-15T07:59:00;98372.16;;;5.06;77.78
21824;BME280;11074;48.596;9.238;2023-03-15T08:01:26;98376.81;;;5.17;77.82
21824;BME280;11074;48.596;9.238;2023-03-15T08:03:52;98375.53;;;5.26;77.81
21824;BME280;11074;48.596;9.238;2023-03-15T08:06:17;98373.47;;;5.28;77.01
21824;BME280;11074;48.596;9.238;2023-03-15T08:08:43;98371.44;;;5.30;75.90
21824;BME280;11074;48.596;9.238;2023-03-15T08:11:09;98372.81;;;5.39;76.88
21824;BME280;11074;48.596;9.238;2023-03-15T08:13:34;98372.75;;;5.46;74.50
21824;BME280;11074;48.596;9.238;2023-03-15T08:16:00;98371.31;;;5.50;74.63
21824;BME280;11074;48.596;9.238;2023-03-15T08:18:26;98371.47;;;5.55;75.13
21824;BME280;11074;48.596;9.238;2023-03-15T08:20:55;98372.13;;;5.50;72.97
21824;BME280;11074;48.596;9.238;2023-03-15T08:23:21;98364.34;;;5.56;74.97
21824;BME280;11074;48.596;9.238;2023-03-15T08:25:47;98369.41;;;5.57;74.77
21824;BME280;11074;48.596;9.238;2023-03-15T08:28:14;98373.53;;;5.53;73.40
21824;BME280;11074;48.596;9.238;2023-03-15T08:30:40;98370.81;;;5.60;72.54
21824;BME280;11074;48.596;9.238;2023-03-15T08:33:07;98372.06;;;5.57;73.74
21824;BME280;11074;48.596;9.238;2023-03-15T08:35:33;98369.81;;;5.61;73.63
21824;BME280;11074;48.596;9.238;2023-03-15T08:38:00;98364.91;;;5.64;71.66
21824;BME280;11074;48.596;9.238;2023-03-15T08:40:27;98375.88;;;5.68;72.85
21824;BME280;11074;48.596;9.238;2023-03-15T08:42:54;98368.47;;;5.76;71.36
21824;BME280;11074;48.596;9.238;2023-03-15T08:45:23;98354.81;;;5.73;69.07
21824;BME280;11074;48.596;9.238;2023-03-15T08:47:59;98365.56;;;5.78;70.08
21824;BME280;11074;48.596;9.238;2023-03-15T08:50:27;98373.75;;;5.76;69.70
21824;BME280;11074;48.596;9.238;2023-03-15T08:52:54;98373.47;;;5.91;70.71
21824;BME280;11074;48.596;9.238;2023-03-15T08:55:20;98372.44;;;5.92;68.62
21824;BME280;11074;48.596;9.238;2023-03-15T08:57:46;98365.72;;;5.89;65.89
21824;BME280;11074;48.596;9.238;2023-03-15T09:00:12;98367.53;;;5.95;67.51
21824;BME280;11074;48.596;9.238;2023-03-15T09:02:45;98364.16;;;6.06;67.79
21824;BME280;11074;48.596;9.238;2023-03-15T09:05:13;98366.34;;;6.09;66.78
21824;BME280;11074;48.596;9.238;2023-03-15T09:07:41;98374.78;;;6.06;66.50
21824;BME280;11074;48.596;9.238;2023-03-15T09:10:09;98381.84;;;6.13;66.56
21824;BME280;11074;48.596;9.238;2023-03-15T09:12:37;98381.22;;;6.17;63.55
21824;BME280;11074;48.596;9.238;2023-03-15T09:15:03;98382.69;;;6.31;65.07
21824;BME280;11074;48.596;9.238;2023-03-15T09:17:29;98396.19;;;6.30;62.98
21824;BME280;11074;48.596;9.238;2023-03-15T09:19:54;98384.16;;;6.27;63.24
21824;BME280;11074;48.596;9.238;2023-03-15T09:22:20;98393.66;;;6.17;62.09
21824;BME280;11074;48.596;9.238;2023-03-15T09:24:46;98391.44;;;6.14;64.29
21824;BME280;11074;48.596;9.238;2023-03-15T09:27:11;98391.09;;;6.28;63.34
21824;BME280;11074;48.596;9.238;2023-03-15T09:29:37;98397.50;;;6.39;62.53
21824;BME280;11074;48.596;9.238;2023-03-15T09:32:03;98400.38;;;6.62;63.93
21824;BME280;11074;48.596;9.238;2023-03-15T09:34:29;98399.91;;;6.83;63.26
21824;BME280;11074;48.596;9.238;2023-03-15T09:36:54;98413.84;;;6.79;62.95
21824;BME280;11074;48.596;9.238;2023-03-15T09:39:22;98394.09;;;6.75;62.18
21824;BME280;11074;48.596;9.238;2023-03-15T09:41:54;98411.72;;;6.51;61.12
21824;BME280;11074;48.596;9.238;2023-03-15T09:47:35;98408.53;;;6.42;61.45
21824;BME280;11074;48.596;9.238;2023-03-15T09:50:31;98413.16;;;6.47;61.53
21824;BME280;11074;48.596;9.238;2023-03-15T09:53:02;98410.50;;;6.47;61.50
21824;BME280;11074;48.596;9.238;2023-03-15T09:55:29;98414.06;;;6.59;61.43
21824;BME280;11074;48.596;9.238;2023-03-15T09:58:00;98417.03;;;6.69;62.97
21824;BME280;11074;48.596;9.238;2023-03-15T10:00:39;98414.59;;;6.67;62.84
21824;BME280;11074;48.596;9.238;2023-03-15T10:05:59;98424.72;;;6.77;62.57
21824;BME280;11074;48.596;9.238;2023-03-15T10:08:25;98409.34;;;6.79;61.81
21824;BME280;11074;48.596;9.238;2023-03-15T10:11:02;98416.28;;;6.80;62.74
21824;BME280;11074;48.596;9.238;2023-03-15T10:16:46;98421.66;;;6.73;61.57
21824;BME280;11074;48.596;9.238;2023-03-15T10:22:00;98415.19;;;6.88;62.22
21824;BME280;11074;48.596;9.238;2023-03-15T10:24:58;98413.72;;;6.92;63.10
21824;BME280;11074;48.596;9.238;2023-03-15T10:27:41;98408.56;;;6.97;63.02
21824;BME280;11074;48.596;9.238;2023-03-15T10:30:22;98413.13;;;7.08;62.23
21824;BME280;11074;48.596;9.238;2023-03-15T10:35:27;98409.81;;;7.24;60.93
21824;BME280;11074;48.596;9.238;2023-03-15T10:37:53;98406.59;;;7.22;61.21
21824;BME280;11074;48.596;9.238;2023-03-15T10:40:47;98402.72;;;7.36;61.22
21824;BME280;11074;48.596;9.238;2023-03-15T10:43:27;98401.59;;;7.44;59.59
21824;BME280;11074;48.596;9.238;2023-03-15T10:46:10;98397.47;;;7.59;59.58
21824;BME280;11074;48.596;9.238;2023-03-15T10:48:39;98394.47;;;7.56;58.23
21824;BME280;11074;48.596;9.238;2023-03-15T10:53:58;98391.97;;;7.43;58.05
21824;BME280;11074;48.596;9.238;2023-03-15T10:56:34;98390.06;;;7.50;57.79
21824;BME280;11074;48.596;9.238;2023-03-15T10:59:02;98396.00;;;7.63;58.37
21824;BME280;11074;48.596;9.238;2023-03-15T11:01:31;98391.00;;;7.67;57.72
21824;BME280;11074;48.596;9.238;2023-03-15T11:04:21;98389.78;;;7.81;58.01
21824;BME280;11074;48.596;9.238;2023-03-15T11:09:25;98376.09;;;7.77;54.24
21824;BME280;11074;48.596;9.238;2023-03-15T11:12:28;98369.56;;;8.03;55.88
21824;BME280;11074;48.596;9.238;2023-03-15T11:17:34;98375.72;;;8.04;54.75
21824;BME280;11074;48.596;9.238;2023-03-15T11:20:14;98376.28;;;8.06;54.02
21824;BME280;11074;48.596;9.238;2023-03-15T11:22:41;98367.47;;;7.93;53.61
21824;BME280;11074;48.596;9.238;2023-03-15T11:25:17;98391.94;;;7.72;53.65
21824;BME280;11074;48.596;9.238;2023-03-15T11:27:45;98375.53;;;7.75;53.38
21824;BME280;11074;48.596;9.238;2023-03-15T11:30:17;98374.75;;;7.86;52.56
21824;BME280;11074;48.596;9.238;2023-03-15T11:32:45;98360.06;;;8.07;52.33
21824;BME280;11074;48.596;9.238;2023-03-15T11:35:35;98364.84;;;8.17;52.08
21824;BME280;11074;48.596;9.238;2023-03-15T11:38:16;98360.19;;;8.24;51.68
21824;BME280;11074;48.596;9.238;2023-03-15T11:40:51;98352.00;;;8.37;51.11
21824;BME280;11074;48.596;9.238;2023-03-15T11:43:27;98345.75;;;8.43;51.81
21824;BME280;11074;48.596;9.238;2023-03-15T11:46:05;98355.13;;;8.45;51.60
21824;BME280;11074;48.596;9.238;2023-03-15T11:48:48;98356.25;;;8.26;51.44
21824;BME280;11074;48.596;9.238;2023-03-15T11:51:15;98353.84;;;8.25;51.69
21824;BME280;11074;48.596;9.238;2023-03-15T11:53:55;98360.91;;;8.31;51.61
21824;BME280;11074;48.596;9.238;2023-03-15T11:56:45;98359.75;;;8.27;50.92
21824;BME280;11074;48.596;9.238;2023-03-15T12:02:00;98357.06;;;8.50;52.42
21824;BME280;11074;48.596;9.238;2023-03-15T12:07:02;98356.97;;;8.57;52.52
21824;BME280;11074;48.596;9.238;2023-03-15T12:12:01;98347.13;;;8.45;53.26
21824;BME280;11074;48.596;9.238;2023-03-15T12:14:33;98361.13;;;8.41;53.10
21824;BME280;11074;48.596;9.238;2023-03-15T12:20:37;98348.75;;;8.35;53.38
21824;BME280;11074;48.596;9.238;2023-03-15T12:23:29;98350.50;;;8.29;53.25
21824;BME280;11074;48.596;9.238;2023-03-15T12:26:06;98347.47;;;8.37;53.97
21824;BME280;11074;48.596;9.238;2023-03-15T12:28:40;98356.50;;;8.48;53.28
21824;BME280;11074;48.596;9.238;2023-03-15T12:31:12;98359.38;;;8.70;52.78
21824;BME280;11074;48.596;9.238;2023-03-15T12:33:53;98343.88;;;8.95;53.33
21824;BME280;11074;48.596;9.238;2023-03-15T12:36:37;98349.81;;;9.13;52.68
21824;BME280;11074;48.596;9.238;2023-03-15T12:41:49;98341.44;;;9.22;52.20
21824;BME280;11074;48.596;9.238;2023-03-15T12:44:37;98340.06;;;9.19;50.88
21824;BME280;11074;48.596;9.238;2023-03-15T12:47:10;98344.59;;;9.19;51.90
21824;BME280;11074;48.596;9.238;2023-03-15T12:49:45;98338.69;;;9.17;50.83
21824;BME280;11074;48.596;9.238;2023-03-15T12:55:03;98338.44;;;8.90;51.27
21824;BME280;11074;48.596;9.238;2023-03-15T12:57:38;98336.34;;;8.92;51.66
21824;BME280;11074;48.596;9.238;2023-03-15T13:00:26;98347.69;;;8.99;50.61
21824;BME280;11074;48.596;9.238;2023-03-15T13:03:07;98354.50;;;9.06;50.41
21824;BME280;11074;48.596;9.238;2023-03-15T13:11:43;98336.38;;;9.37;50.42
21824;BME280;11074;48.596;9.238;2023-03-15T13:14:35;98340.84;;;9.48;50.98
21824;BME280;11074;48.596;9.238;2023-03-15T13:17:34;98340.69;;;9.38;49.73
21824;BME280;11074;48.596;9.238;2023-03-15T13:26:13;98340.63;;;9.21;50.81
21824;BME280;11074;48.596;9.238;2023-03-15T13:28:48;98339.06;;;9.08;50.00
21824;BME280;11074;48.596;9.238;2023-03-15T13:31:24;98342.94;;;9.01;51.36
21824;BME280;11074;48.596;9.238;2023-03-15T13:33:57;98338.31;;;8.96;51.33
21824;BME280;11074;48.596;9.238;2023-03-15T13:36:56;98345.31;;;8.86;51.22
21824;BME280;11074;48.596;9.238;2023-03-15T13:39:32;98345.97;;;8.93;50.79
21824;BME280;11074;48.596;9.238;2023-03-15T13:42:03;98338.78;;;8.93;51.84
21824;BME280;11074;48.596;9.238;2023-03-15T13:44:31;98345.41;;;8.91;51.47
21824;BME280;11074;48.596;9.238;2023-03-15T13:46:59;98340.06;;;8.91;50.64
21824;BME280;11074;48.596;9.238;2023-03-15T13:49:32;98340.63;;;8.93;50.27
21824;BME280;11074;48.596;9.238;2023-03-15T13:52:01;98348.38;;;8.94;51.36
21824;BME280;11074;48.596;9.238;2023-03-15T13:54:32;98350.47;;;8.92;51.08
21824;BME280;11074;48.596;9.238;2023-03-15T13:57:15;98335.69;;;8.85;52.64
21824;BME280;11074;48.596;9.238;2023-03-15T14:00:04;98344.50;;;8.85;52.47
21824;BME280;11074;48.596;9.238;2023-03-15T14:02:46;98343.09;;;8.83;52.70
21824;BME280;11074;48.596;9.238;2023-03-15T14:05:17;98344.13;;;8.82;52.32
21824;BME280;11074;48.596;9.238;2023-03-15T14:07:48;98354.69;;;8.77;52.75
21824;BME280;11074;48.596;9.238;2023-03-15T14:10:36;98357.13;;;8.78;53.46
21824;BME280;11074;48.596;9.238;2023-03-15T14:13:24;98360.28;;;8.75;52.04
21824;BME280;11074;48.596;9.238;2023-03-15T14:16:04;98380.88;;;8.80;52.76
21824;BME280;11074;48.596;9.238;2023-03-15T14:18:39;98369.28;;;8.86;52.18
21824;BME280;11074;48.596;9.238;2023-03-15T14:21:10;98370.44;;;8.90;52.19
21824;BME280;11074;48.596;9.238;2023-03-15T14:23:45;98369.72;;;8.94;51.50